Latest Weather Observations for Cowley Beach (Defence)

IDQ60801

Issued at 7:42 pm EST Sunday 29 March 2020 (issued every 10 minutes, with the page automatically refreshed every 10 minutes)

About weather observations | Map of weather stations | Latest weather observations for QLD | Other Formats
Station Details ID: 032194 Name: COWLEY BEACH (DEFENCE) Lat: -17.69 Lon: 146.11 Height: 4.25 m
Data from the previous 72 hours. | See also: Recent months for locations in Queensland
Date/Time
EST
Temp
°C
App
Temp
°C
Dew
Point
°C
Rel
Hum
%
Delta-T
°C
Wind Press
QNH
hPa
Press
MSL
hPa
Rain since
9am
mm
Dir  Spd
km/h
Gust
km/h
Spd
kts
Gust
kts
29/07:30pm 26.9 31.0 23.2 80 2.5 ESE 7 15 4 8 - - 19.0
29/07:00pm 26.9 31.0 23.2 80 2.5 ESE 7 15 4 8 - - 19.0
29/06:30pm 27.0 30.9 23.0 79 2.7 SE 7 17 4 9 - - 19.0
29/06:00pm 27.1 30.8 23.3 80 2.6 SE 9 17 5 9 - - 19.0
29/05:30pm 27.1 31.4 23.6 81 2.4 ESE 7 13 4 7 - - 19.0
29/05:00pm 27.3 32.0 24.0 82 2.3 SE 6 17 3 9 - - 19.0
29/04:30pm 27.5 31.3 23.5 79 2.7 SE 9 17 5 9 - - 19.0
29/04:00pm 27.3 31.1 23.5 80 2.6 SE 9 15 5 8 - - 19.0
29/03:30pm 27.3 31.9 24.2 83 2.1 ESE 7 15 4 8 - - 19.0
29/03:00pm 27.0 30.7 23.9 83 2.1 SE 11 20 6 11 - - 19.0
29/02:30pm 26.6 29.9 23.9 85 1.9 ESE 13 22 7 12 - - 19.0
29/02:00pm 24.6 28.8 23.4 93 0.8 S 7 20 4 11 - - 18.4
29/01:30pm 24.7 27.8 22.8 89 1.3 SE 11 22 6 12 - - 11.6
29/01:00pm 25.8 30.2 24.4 92 1.0 E 9 19 5 10 - - 10.8
29/12:30pm 26.9 31.4 24.0 84 2.0 SE 7 17 4 9 - - 10.2
29/12:00pm 28.6 33.6 24.8 80 2.7 SE 7 15 4 8 - - 10.2
29/11:30am 28.0 33.3 25.2 85 2.0 ESE 7 15 4 8 - - 10.0
29/11:00am 27.1 32.2 24.6 86 1.7 SE 6 11 3 6 - - 10.0
29/10:30am 26.5 31.7 25.1 92 1.0 SE 7 15 4 8 - - 10.0
29/10:00am 25.9 29.5 23.8 88 1.4 S 11 20 6 11 - - 9.4
29/09:30am 25.3 29.9 24.1 93 0.8 SE 7 19 4 10 - - 9.4
29/09:00am 26.2 30.4 24.1 88 1.4 SSE 9 19 5 10 - - 13.4
29/08:30am 26.2 30.0 23.5 85 1.8 SE 9 17 5 9 - - 12.6
29/08:00am 27.4 32.2 24.1 82 2.3 SSE 6 13 3 7 - - 12.2
29/07:30am 26.4 30.4 23.1 82 2.2 SSE 7 15 4 8 - - 12.2
29/07:00am 26.3 30.5 23.2 83 2.1 SE 6 13 3 7 - - 12.2
29/06:30am 25.8 30.1 23.7 88 1.4 SSE 7 13 4 7 - - 12.2
29/06:00am 25.6 29.4 22.7 84 2.0 ESE 7 15 4 8 - - 12.2
29/05:30am 25.4 29.7 23.6 90 1.2 S 7 13 4 7 - - 12.2
29/05:00am 25.1 28.8 22.6 86 1.7 SSE 7 15 4 8 - - 12.2
29/04:30am 25.5 29.7 23.2 87 1.6 SSE 6 15 3 8 - - 12.2
29/04:00am 24.9 29.2 23.7 93 0.8 SSE 7 20 4 11 - - 12.2
29/03:30am 24.2 27.2 23.3 95 0.6 S 13 22 7 12 - - 12.2
29/03:00am 23.6 27.7 22.2 92 0.9 WSW 4 7 2 4 - - 6.4
29/02:30am 24.2 28.8 22.5 90 1.1 SW 2 6 1 3 - - 6.2
29/02:00am 24.7 28.7 22.8 89 1.3 S 6 9 3 5 - - 6.2
29/01:30am 24.6 28.1 22.8 90 1.2 SSE 9 20 5 11 - - 6.2
29/01:00am 25.8 30.0 23.5 87 1.6 SSE 7 13 4 7 - - 6.2
29/12:30am 25.9 30.6 23.4 86 1.7 SE 4 11 2 6 - - 6.2
29/12:00am 25.6 29.8 23.1 86 1.7 SE 6 15 3 8 - - 6.2
 
Date/Time
EST
Temp
°C
App
Temp
°C
Dew
Point
°C
Rel
Hum
%
Delta-T
°C
Wind Press
QNH
hPa
Press
MSL
hPa
Rain since
9am
mm
Dir  Spd
km/h
Gust
km/h
Spd
kts
Gust
kts
28/11:30pm 25.2 29.7 23.6 91 1.1 SSE 6 13 3 7 - - 6.2
28/11:00pm 25.3 30.2 23.7 91 1.1 SSE 4 9 2 5 - - 6.2
28/10:30pm 25.6 28.8 23.1 86 1.7 E 11 19 6 10 - - 6.0
28/10:00pm 24.9 29.0 23.9 94 0.7 SE 9 17 5 9 - - 6.0
28/09:30pm 23.7 26.6 22.5 93 0.8 ESE 11 20 6 11 - - 5.6
28/09:00pm 24.3 26.1 22.6 90 1.1 E 17 30 9 16 - - 3.8
28/08:30pm 25.6 30.0 23.8 90 1.2 SE 7 17 4 9 - - 3.6
28/08:00pm 25.4 28.9 23.6 90 1.2 ESE 11 22 6 12 - - 3.4
28/07:30pm 26.3 30.4 24.0 87 1.6 SE 9 15 5 8 - - 3.2
28/07:00pm 25.4 30.4 24.5 95 0.6 S 6 13 3 7 - - 3.2
28/06:30pm 24.4 28.1 23.2 93 0.8 S 9 20 5 11 - - 2.4
28/06:00pm 25.6 28.7 23.5 88 1.4 SSW 13 20 7 11 - - 0.8
28/05:30pm 26.4 29.9 23.5 84 2.0 S 11 19 6 10 - - 0.8
28/05:00pm 26.8 30.6 23.5 82 2.3 S 9 13 5 7 - - 0.8
28/04:30pm 25.7 29.1 23.4 87 1.6 S 11 20 6 11 - - 0.8
28/04:00pm 26.2 30.3 23.9 87 1.6 S 9 13 5 7 - - 0.8
28/03:30pm 26.6 30.6 23.7 84 2.0 S 9 19 5 10 - - 0.8
28/03:00pm 26.7 31.0 24.2 86 1.7 S 9 17 5 9 - - 0.8
28/02:30pm 26.8 30.4 23.7 83 2.1 S 11 19 6 10 - - 0.8
28/02:00pm 26.7 30.5 24.0 85 1.9 S 11 17 6 9 - - 0.8
28/01:30pm 26.1 29.9 24.0 88 1.4 S 11 24 6 13 - - 0.8
28/01:00pm 25.9 29.9 23.8 88 1.4 SSW 9 17 5 9 - - 0.8
28/12:30pm 25.5 28.4 23.2 87 1.6 S 13 24 7 13 - - 0.8
28/12:00pm 25.7 28.2 23.2 86 1.7 S 15 24 8 13 - - 0.8
28/11:30am 25.8 30.7 24.6 93 0.8 S 7 13 4 7 - - 0.8
28/11:00am 24.9 27.9 22.0 84 1.9 ESE 9 17 5 9 - - 0.0
28/10:30am 27.4 31.1 24.5 84 2.0 S 13 22 7 12 - - 0.0
28/10:00am 27.1 30.7 23.8 82 2.3 S 11 19 6 10 - - 0.0
28/09:30am 27.5 31.6 24.6 84 2.0 S 11 19 6 10 - - 0.0
28/09:00am 28.1 33.0 24.3 80 2.6 SE 6 15 3 8 - - 17.4
28/08:30am 27.2 31.8 24.1 83 2.1 SSE 7 17 4 9 - - 17.4
28/08:00am 26.9 31.6 24.0 84 2.0 SSE 6 9 3 5 - - 17.4
28/07:30am 26.7 31.2 23.6 83 2.1 SSE 6 11 3 6 - - 17.4
28/07:00am 26.3 30.7 23.8 86 1.7 SSE 7 15 4 8 - - 17.4
28/06:30am 26.1 30.4 23.6 86 1.7 SSE 7 13 4 7 - - 17.4
28/06:00am 26.1 29.9 23.4 85 1.8 ESE 9 15 5 8 - - 17.4
28/05:30am 26.0 29.6 23.1 84 2.0 ESE 9 19 5 10 - - 17.4
28/05:00am 26.1 30.3 23.4 85 1.8 SE 7 15 4 8 - - 17.4
28/04:30am 26.0 30.5 23.9 88 1.4 SE 7 17 4 9 - - 17.4
28/04:00am 25.6 29.4 24.0 91 1.1 SE 11 20 6 11 - - 17.4
28/03:30am 24.3 28.8 23.6 96 0.5 SE 6 9 3 5 - - 17.4
28/03:00am 23.6 27.4 22.8 95 0.5 SW 7 9 4 5 - - 17.2
28/02:30am 23.7 27.8 22.9 95 0.5 SW 6 9 3 5 - - 15.6
28/02:00am 23.5 27.8 22.7 95 0.5 SW 4 9 2 5 - - 14.6
28/01:30am 23.7 28.2 22.9 95 0.5 SSW 4 7 2 4 - - 13.8
28/01:00am 23.6 27.4 22.4 93 0.8 SE 6 15 3 8 - - 12.4
28/12:30am 23.5 27.0 21.9 91 1.1 SW 6 11 3 6 - - 3.2
28/12:00am 23.6 27.2 22.0 91 1.1 SW 6 9 3 5 - - 3.2
 
Date/Time
EST
Temp
°C
App
Temp
°C
Dew
Point
°C
Rel
Hum
%
Delta-T
°C
Wind Press
QNH
hPa
Press
MSL
hPa
Rain since
9am
mm
Dir  Spd
km/h
Gust
km/h
Spd
kts
Gust
kts
27/11:30pm 23.8 27.3 22.1 90 1.1 SW 7 11 4 6 - - 3.2
27/11:00pm 23.8 27.8 22.1 90 1.1 SSW 4 7 2 4 - - 3.2
27/10:30pm 23.6 27.1 21.9 90 1.1 SW 6 7 3 4 - - 3.2
27/10:00pm 23.7 27.6 21.8 89 1.3 SW 4 6 2 3 - - 3.2
27/09:30pm 24.3 27.9 22.0 87 1.5 SW 6 9 3 5 - - 3.2
27/09:00pm 25.9 30.1 22.4 81 2.4 S 4 9 2 5 - - 3.2
27/08:30pm 26.0 30.1 22.3 80 2.5 S 4 7 2 4 - - 3.2
27/08:00pm 26.1 30.2 22.2 79 2.6 SSE 4 9 2 5 - - 3.2
27/07:30pm 26.1 30.1 22.0 78 2.7 SSE 4 9 2 5 - - 3.2
27/07:00pm 26.2 30.2 22.1 78 2.7 ESE 4 7 2 4 - - 3.2
27/06:30pm 26.4 30.4 22.0 77 2.9 ESE 4 9 2 5 - - 3.2
27/06:00pm 26.4 30.4 22.0 77 2.9 SE 4 7 2 4 - - 3.2
27/05:30pm 26.7 30.4 22.3 77 3.0 ESE 6 13 3 7 - - 3.2
27/05:00pm 26.8 30.9 22.2 76 3.1 SSE 4 9 2 5 - - 3.2
27/04:30pm 27.0 30.7 22.2 75 3.2 SSE 6 11 3 6 - - 3.2
27/04:00pm 27.4 31.0 22.1 73 3.6 SSE 6 13 3 7 - - 3.2
27/03:30pm 27.8 31.9 22.3 72 3.7 ESE 4 11 2 6 - - 3.2
27/03:00pm 28.1 32.2 23.0 74 3.5 SE 6 9 3 5 - - 3.2
27/02:30pm 27.4 31.3 22.6 75 3.2 SSE 6 9 3 5 - - 3.2
27/02:00pm 26.9 30.6 22.3 76 3.1 ESE 6 11 3 6 - - 3.2
27/01:30pm 27.1 30.8 22.5 76 3.1 SSE 7 15 4 8 - - 3.2
27/01:00pm 26.8 30.3 22.8 79 2.7 SE 9 17 5 9 - - 3.2
27/12:30pm 25.9 30.0 23.2 85 1.8 SSE 7 13 4 7 - - 3.0
27/12:00pm 26.7 31.1 23.4 82 2.3 SSE 6 13 3 7 - - 2.2
27/11:30am 25.8 29.5 22.5 82 2.2 SE 7 15 4 8 - - 2.2
27/11:00am 26.2 30.0 23.5 85 1.8 SE 9 19 5 10 - - 2.2
27/10:30am 25.9 29.7 22.8 83 2.1 SE 7 15 4 8 - - 2.2
27/10:00am 26.1 30.7 23.8 87 1.6 SE 6 13 3 7 - - 2.2
27/09:30am 24.9 29.7 24.2 96 0.5 SSE 6 11 3 6 - - 2.2
27/09:00am 24.1 27.7 23.1 94 0.7 SW 9 11 5 6 - - 169.4
27/08:30am 23.4 27.1 22.6 95 0.5 SW 7 13 4 7 - - 169.2
27/08:00am 23.2 27.1 22.5 96 0.5 SW 6 9 3 5 - - 169.2
27/07:30am 22.5 25.8 21.8 96 0.5 SW 7 11 4 6 - - 169.2
27/07:00am 22.3 25.5 21.6 96 0.5 SW 7 9 4 5 - - 169.2
27/06:30am 22.5 25.9 21.7 95 0.5 SW 6 7 3 4 - - 168.6
27/06:00am 22.7 27.0 21.9 95 0.5 SE 2 4 1 2 - - 168.2
27/05:30am 23.1 26.9 22.4 96 0.5 E 6 7 3 4 - - 166.8
27/05:00am 22.6 25.1 21.8 95 0.5 ENE 11 20 6 11 - - 162.6
27/04:30am 23.4 26.8 22.7 96 0.5 NNE 9 13 5 7 - - 150.0
27/04:00am 23.3 25.8 22.5 95 0.5 NE 13 20 7 11 - - 139.4
27/03:30am 23.8 26.5 22.1 90 1.1 E 11 20 6 11 - - 129.2
27/03:00am 25.4 30.2 23.5 89 1.3 ESE 4 7 2 4 - - 121.4
27/02:30am 25.6 29.7 23.3 87 1.6 SE 7 15 4 8 - - 121.2
27/02:00am 25.6 30.1 23.7 89 1.3 SE 6 11 3 6 - - 121.0
27/01:30am 25.3 29.7 23.4 89 1.3 SE 6 13 3 7 - - 121.0
27/01:00am 25.4 29.7 23.6 90 1.2 SE 7 15 4 8 - - 121.0
27/12:30am 25.5 30.3 24.1 92 1.0 SE 6 9 3 5 - - 120.8
27/12:00am 25.6 30.1 24.0 91 1.1 ESE 7 13 4 7 - - 120.8
 
Date/Time
EST
Temp
°C
App
Temp
°C
Dew
Point
°C
Rel
Hum
%
Delta-T
°C
Wind Press
QNH
hPa
Press
MSL
hPa
Rain since
9am
mm
Dir  Spd
km/h
Gust
km/h
Spd
kts
Gust
kts
26/11:30pm 24.9 28.7 23.5 92 1.0 ESE 9 17 5 9 - - 120.8
26/11:00pm 25.8 30.4 24.2 91 1.1 ESE 7 15 4 8 - - 120.4
26/10:30pm 25.4 29.9 24.0 92 1.0 SE 7 17 4 9 - - 120.2
26/10:00pm 25.1 30.3 24.2 95 0.6 ESE 4 11 2 6 - - 119.4
26/09:30pm 25.0 29.6 24.1 95 0.6 ESE 7 13 4 7 - - 118.0
26/09:00pm 24.6 27.8 23.7 95 0.6 E 13 22 7 12 - - 114.0
26/08:30pm 24.2 25.8 23.3 95 0.6 E 20 30 11 16 - - 108.4
26/08:00pm 24.8 27.4 23.9 95 0.6 ESE 17 28 9 15 - - 100.4

Other formats

Comma delimited format used in spreadsheet applications
http://www.bom.gov.au/fwo/IDQ60801/IDQ60801.99218.axf

JavaScript Object Notation format (JSON) in row-major order
http://www.bom.gov.au/fwo/IDQ60801/IDQ60801.99218.json

Data quality

Most of these data are generated automatically and are frequently updated. Quality checks on data are not normally performed. It is possible for incorrect values to appear. Refer to information at About Latest Weather Observations and please check the disclaimer before using these data.